• Join FlightAware (Why Join?)
  • Login
  • US Flag 
07:12PM EDT


 

Airport Tracker/Info


-or-


 

Live Flight TrackerFlight Track Log ✈ N709UW ✈ 19-Apr-2013 ✈ KPHL - MMUN / CUN

Flight Track Log - Related Links

Times and Time Zones

All times are in EDT time to prevent confusion due to time zone crossing. See the N709UW flight status page for this flight to view local times or setup timezone preferences in your user account.

Time Position Orientation Groundspeed Altitude Reporting Facility
EDT Latitude Longitude Course Direction KTS MPH feet Rate Location/Type
07:03PM 39.8567 -75.2883 185° South 160 184 1,300  Level FAA TRACON SMA TRACON (SMA)
07:03PM 39.8483 -75.3014 230° Southwest 157 181 1,900 1,620 Climbing FAA TRACON SMA TRACON (SMA)
07:03PM 39.8389 -75.3147 227° Southwest 161 185 2,400 2,100 Climbing FAA TRACON SMA TRACON (SMA)
07:04PM 39.8247 -75.3328 224° Southwest 184 212 3,300 2,520 Climbing FAA TRACON SMA TRACON (SMA)
07:04PM 39.8128 -75.3464 221° Southwest 186 214 4,100 2,220 Climbing FAA TRACON SMA TRACON (SMA)
07:04PM 39.7978 -75.3589 213° Southwest 224 258 4,800 2,520 Climbing FAA TRACON SMA TRACON (SMA)
07:05PM 39.7742 -75.3619 186° South 225 259 5,800 2,820 Climbing FAA TRACON SMA TRACON (SMA)
07:05PM 39.7542 -75.3628 182° South 231 266 6,700 2,700 Climbing FAA TRACON SMA TRACON (SMA)
07:05PM 39.7339 -75.3642 183° South 236 272 7,600 3,000 Climbing FAA TRACON SMA TRACON (SMA)
07:06PM 39.7083 -75.3650 181° South 238 274 8,700 2,820 Climbing FAA TRACON SMA TRACON (SMA)
07:06PM 39.6872 -75.3658 182° South 244 281 9,500 2,160 Climbing FAA TRACON SMA TRACON (SMA)
07:07PM 39.6369 -75.3675 181° South 264 304 10,900 1,680 Climbing FAA TRACON SMA TRACON (SMA)
07:07PM 39.6114 -75.3683 181° South 297 342 11,200 1,200 Climbing FAA TRACON SMA TRACON (SMA)
07:07PM 39.5850 -75.3686 180° South 312 359 11,700 2,100 Climbing FAA TRACON SMA TRACON (SMA)
07:08PM 38.9823 -75.4038 185° South  Level FlightAware Approximate
07:08PM 39.5503 -75.3706 182° South 320 368 12,600  Level FAA TRACON SMA TRACON (SMA)
07:08PM 39.5228 -75.3708 180° South 323 372 13,400 2,220 Climbing FAA TRACON SMA TRACON (SMA)
07:08PM 39.4947 -75.3719 182° South 326 375 14,100 2,520 Climbing FAA TRACON SMA TRACON (SMA)
07:09PM 39.4592 -75.3728 181° South 328 377 15,100 2,400 Climbing FAA TRACON SMA TRACON (SMA)
07:09PM 39.4308 -75.3739 182° South 330 380 15,700 1,800 Climbing FAA TRACON SMA TRACON (SMA)
07:09PM 39.4036 -75.3747 181° South 331 381 16,300 1,800 Climbing FAA TRACON SMA TRACON (SMA)
07:10PM 39.3667 -75.3756 181° South 333 383 16,900 1,200 Climbing FAA TRACON SMA TRACON (SMA)
07:10PM 39.3372 -75.3750 179° South 334 384 17,100 300 Climbing FAA TRACON SMA TRACON (SMA)
07:10PM 39.3092 -75.3775 184° South 334 384 17,100  Level FAA TRACON SMA TRACON (SMA)
07:11PM 39.2733 -75.3783 181° South 335 386 17,100 -180 Level FAA TRACON SMA TRACON (SMA)
07:11PM 39.2456 -75.3800 183° South 334 384 17,000 -180 Descending FAA TRACON SMA TRACON (SMA)
07:11PM 39.2456 -75.3800 180° South 334 384 17,000 840 Level FAA TRACON SMA TRACON (SMA)
07:13PM 39.0361 -75.4072 186° South 340 391 18,900 1,320 Climbing Washington Center
07:14PM 38.9422 -75.4208 186° South 346 398 20,900 1,260 Climbing Washington Center
07:15PM 38.8464 -75.4397 189° South 352 405 21,500 960 Climbing Washington Center
07:16PM 38.7547 -75.4931 204° Southwest 352 405 22,900 1,200 Climbing Washington Center
07:17PM 38.6611 -75.5439 203° Southwest 364 419 23,900 960 Climbing Washington Center
07:18PM 38.5631 -75.6022 205° Southwest 379 436 24,900 1,200 Climbing Washington Center
07:19PM 38.4650 -75.6606 205° Southwest 385 443 26,300 1,200 Climbing Washington Center
07:20PM 38.3608 -75.7161 203° Southwest 390 449 27,300 1,020 Climbing Washington Center
07:21PM 38.2586 -75.7742 204° Southwest 401 461 28,400 1,020 Climbing Washington Center
07:22PM 38.1542 -75.8319 204° Southwest 401 461 29,400 960 Climbing Washington Center
07:23PM 38.0497 -75.8897 204° Southwest 406 467 30,400 960 Climbing Washington Center
07:24PM 37.9475 -75.9472 204° Southwest 406 467 31,400 960 Climbing Washington Center
07:25PM 37.8533 -75.9994 204° Southwest 406 467 32,400 1,020 Climbing Washington Center
07:26PM 37.7553 -76.0619 207° Southwest 406 467 33,500 780 Climbing Washington Center
07:27PM 37.6547 -76.1189 204° Southwest 401 461 34,000 240 Climbing Washington Center
07:28PM 37.5503 -76.1681 200° South 401 461 34,000  Level Washington Center
07:29PM 37.4478 -76.2275 205° Southwest 401 461 34,000  Level Washington Center
07:30PM 37.3453 -76.2814 203° Southwest 401 461 34,000  Level Washington Center
07:31PM 37.2428 -76.3406 205° Southwest 401 461 34,000  Level Washington Center
07:32PM 37.1403 -76.3944 203° Southwest 401 461 34,000  Level Washington Center
07:33PM 37.0375 -76.4531 204° Southwest 401 461 34,000  Level Washington Center
07:34PM 36.9350 -76.5092 204° Southwest 401 461 34,000  Level Washington Center
07:35PM 36.8322 -76.5675 204° Southwest 401 461 34,000  Level Washington Center
07:36PM 36.7253 -76.6258 204° Southwest 401 461 34,000  Level Washington Center
07:37PM 36.6225 -76.6842 204° Southwest 401 461 34,000  Level Washington Center
07:38PM 36.5136 -76.7419 203° Southwest 411 473 34,000  Level Washington Center
07:39PM 36.4086 -76.7972 203° Southwest 416 479 34,000  Level Washington Center
07:40PM 36.3039 -76.8550 204° Southwest 416 479 34,000  Level Washington Center
07:41PM 36.2011 -76.9100 203° Southwest 416 479 34,000  Level Washington Center
07:42PM 36.0939 -76.9647 202° Southwest 416 479 34,000  Level Washington Center
07:43PM 35.9911 -77.0219 204° Southwest 416 479 34,000  Level Washington Center
07:44PM 35.8819 -77.0739 201° Southwest 422 486 34,000  Level Washington Center
07:45PM 35.7769 -77.1308 204° Southwest 422 486 34,000  Level Washington Center
07:46PM 35.6739 -77.1900 205° Southwest 417 480 34,000  Level Washington Center
07:47PM 35.5689 -77.2417 202° Southwest 417 480 34,000 -60 Level Washington Center
07:48PM 35.4636 -77.2981 204° Southwest 422 486 33,900  Descending Washington Center
07:49PM 35.3564 -77.3569 204° Southwest 422 486 34,000  Climbing Washington Center
07:50PM 35.2472 -77.4106 202° Southwest 422 486 34,000  Level Washington Center
07:51PM 35.1297 -77.4486 195° South 422 486 34,100  Climbing Washington Center
07:52PM 35.0164 -77.4889 196° South 428 493 34,000 -60 Descending Washington Center
07:53PM 34.9011 -77.5294 196° South 433 498 34,000  Level Washington Center
07:54PM 34.7897 -77.5697 197° South 433 498 34,000 -60 Level Washington Center
07:55PM 34.6764 -77.6100 196° South 422 486 33,900 -60 Descending Washington Center
07:56PM 34.5611 -77.6475 195° South 422 486 33,900  Level Washington Center
07:57PM 34.4497 -77.6850 196° South 422 486 34,000  Climbing Washington Center
07:58PM 34.3344 -77.7247 196° South 422 486 34,000  Level Washington Center
08:00PM 34.1500 -77.7814 194° South 421 484 34,000  Level Jacksonville Center
08:01PM 34.0350 -77.8208 196° South 427 491 34,000  Level Jacksonville Center
08:02PM 33.9239 -77.8597 196° South 427 491 34,000  Level Jacksonville Center
08:03PM 33.8064 -77.8989 195° South 432 497 34,000  Level Jacksonville Center
08:04PM 33.6933 -77.9378 196° South 432 497 34,100  Climbing Jacksonville Center
08:05PM 33.5614 -77.9825 196° South 438 504 34,000 -60 Descending Jacksonville Center
08:06PM 33.4481 -78.0186 195° South 438 504 34,000  Level Jacksonville Center
08:07PM 33.3306 -78.0575 195° South 433 498 34,000  Level Jacksonville Center
08:08PM 33.2172 -78.0958 196° South 433 498 34,000  Level Jacksonville Center
08:09PM 33.1019 -78.1344 196° South 433 498 34,000 -60 Level Jacksonville Center
08:10PM 32.9864 -78.1728 196° South 433 498 33,900 -60 Descending Jacksonville Center
08:11PM 32.8711 -78.2108 195° South 433 498 33,900  Level Jacksonville Center
08:12PM 32.7578 -78.2489 196° South 433 498 34,000  Climbing Jacksonville Center
08:13PM 32.6442 -78.2842 195° South 433 498 34,000 -60 Level Jacksonville Center
08:14PM 32.5286 -78.3222 196° South 433 498 33,900 60 Descending Jacksonville Center
08:15PM 32.4131 -78.3600 195° South 433 498 34,200 720 Climbing Jacksonville Center
08:16PM 32.2997 -78.4000 197° South 433 498 35,400 840 Climbing Jacksonville Center
08:17PM 32.1864 -78.4375 196° South 433 498 35,900 300 Climbing Jacksonville Center
08:18PM 32.0667 -78.4775 196° South 433 498 36,000  Climbing Jacksonville Center
08:19PM 31.9489 -78.5150 195° South 438 504 36,000  Level Jacksonville Center
08:20PM 31.8292 -78.5525 195° South 443 510 36,000  Level Jacksonville Center
08:21PM 31.7114 -78.5897 195° South 443 510 36,000  Level Jacksonville Center
08:22PM 31.5917 -78.6269 195° South 443 510 36,000 -60 Level Jacksonville Center
08:23PM 31.4761 -78.6639 195° South 443 510 35,900 -60 Descending Jacksonville Center
08:24PM 31.3581 -78.6986 194° South 443 510 35,900  Level Jacksonville Center
08:25PM 31.2383 -78.7403 197° South 448 516 36,000  Climbing Jacksonville Center
08:26PM 31.1186 -78.7819 197° South 448 516 36,000  Level Jacksonville Center
08:27PM 31.0008 -78.8139 193° South 448 516 36,000  Level Jacksonville Center
08:28PM 30.8831 -78.8528 196° South 448 516 36,000  Level Jacksonville Center
08:29PM 30.7692 -78.8867 194° South 443 510 36,000 -60 Level Jacksonville Center
08:30PM 30.6494 -78.9231 195° South 437 503 35,900  Descending Jacksonville Center
08:30PM 30.6175 -78.9328 195° South 438 504 36,000 60 Climbing Miami Center
08:31PM 30.5106 -78.9692 196° South 438 504 36,000 -60 Level Miami Center
08:32PM 30.3975 -79.0053 195° South 433 498 35,900 -60 Descending Miami Center
08:33PM 30.2883 -79.0558 202° Southwest 438 504 35,900  Level Miami Center
08:34PM 30.1708 -79.1039 199° South 437 503 36,000  Climbing Miami Center
08:35PM 30.0575 -79.1519 200° South 437 503 36,000  Level Miami Center
08:36PM 29.9358 -79.2092 202° Southwest 431 496 36,000  Level Miami Center
08:37PM 29.8203 -79.2569 200° South 438 504 36,000  Level Miami Center
08:38PM 29.7067 -79.3117 203° Southwest 438 504 36,000  Level Miami Center
08:39PM 29.5911 -79.3614 201° Southwest 444 511 36,000  Level Miami Center
08:40PM 29.4758 -79.4042 198° South 444 511 36,000  Level Miami Center
08:41PM 29.3642 -79.4564 202° Southwest 439 505 36,000  Level Miami Center
08:42PM 29.2506 -79.5058 201° Southwest 439 505 36,000  Level Miami Center
08:43PM 29.1350 -79.5556 201° Southwest 434 499 36,000  Level Miami Center
08:44PM 29.0156 -79.5881 193° South 434 499 36,000  Level Miami Center
08:45PM 28.8919 -79.6064 187° South 434 499 36,000  Level Miami Center
08:46PM 28.7706 -79.6294 189° South 446 513 36,000  Level Miami Center
08:47PM 28.6428 -79.6500 188° South 451 519 36,000  Level Miami Center
08:48PM 28.5314 -79.6967 200° South 445 512 36,100  Climbing Miami Center
08:49PM 28.4194 -79.7578 206° Southwest 445 512 36,000 -60 Descending Miami Center
08:50PM 28.3097 -79.8183 206° Southwest 439 505 36,000  Level Miami Center
08:51PM 28.1981 -79.8769 205° Southwest 439 505 36,000  Level Miami Center
08:52PM 28.0903 -79.9375 206° Southwest 434 499 36,000  Level Miami Center
08:53PM 27.9806 -79.9956 205° Southwest 428 493 36,000  Level Miami Center
08:54PM 27.8833 -80.0494 206° Southwest 433 498 36,000  Level Miami Center
08:55PM 27.7564 -80.1139 204° Southwest 438 504 36,000  Level Miami Center
08:56PM 27.6486 -80.1742 206° Southwest 438 504 36,000  Level Miami Center
08:57PM 27.5367 -80.2317 204° Southwest 438 504 36,000  Level Miami Center
08:58PM 27.4289 -80.2894 205° Southwest 438 504 36,000  Level Miami Center
08:59PM 27.3189 -80.3492 206° Southwest 438 504 36,000  Level Miami Center
09:00PM 27.2108 -80.4092 206° Southwest 432 497 36,000  Level Miami Center
09:01PM 27.1008 -80.4664 205° Southwest 432 497 36,000  Level Miami Center
09:02PM 26.9908 -80.5258 206° Southwest 427 491 36,000  Level Miami Center
09:03PM 26.8808 -80.5828 205° Southwest 432 497 36,000  Level Miami Center
09:04PM 26.7686 -80.6422 205° Southwest 437 503 36,000  Level Miami Center
09:05PM 26.6692 -80.6947 205° Southwest 437 503 36,000  Level Miami Center
09:06PM 26.5525 -80.7606 207° Southwest 430 495 36,000  Level Miami Center
09:07PM 26.4647 -80.8411 219° Southwest 440 506 36,000  Level Miami Center
09:08PM 26.3597 -80.9328 218° Southwest 445 512 36,000  Level Miami Center
09:09PM 26.2761 -81.0108 220° Southwest 440 506 36,000  Level Miami Center
09:10PM 26.1861 -81.0933 219° Southwest 433 498 36,000  Level Miami Center
09:11PM 26.0917 -81.1803 220° Southwest 433 498 36,000  Level Miami Center
09:12PM 25.9972 -81.2692 220° Southwest 439 505 36,000  Level Miami Center
09:13PM 25.9028 -81.3533 219° Southwest 439 505 36,000  Level Miami Center
09:14PM 25.8103 -81.4378 219° Southwest 439 505 36,000  Level Miami Center
09:15PM 25.7136 -81.5261 219° Southwest 444 511 36,000  Level Miami Center
09:16PM 25.6189 -81.6122 219° Southwest 439 505 36,000  Level Miami Center
09:18PM 25.4294 -81.7819 219° Southwest 439 505 36,000  Level Miami Center
09:19PM 25.3347 -81.8700 220° Southwest 439 505 36,000  Level Miami Center
09:20PM 25.2400 -81.9556 219° Southwest 439 505 36,000  Level Miami Center
09:21PM 25.1431 -82.0411 219° Southwest 439 505 36,000  Level Miami Center
09:22PM 25.0458 -82.1286 219° Southwest 445 512 36,000  Level Miami Center
09:23PM 24.9511 -82.2139 219° Southwest 445 512 36,000 -60 Level Miami Center
09:24PM 24.8539 -82.2989 218° Southwest 445 512 35,900  Descending Miami Center
09:25PM 24.7569 -82.3836 218° Southwest 445 512 36,000  Climbing Miami Center
09:26PM 24.6594 -82.4731 220° Southwest 451 519 36,000  Level Miami Center
09:27PM 24.5625 -82.5578 218° Southwest 451 519 36,000  Level Miami Center
09:28PM 24.4653 -82.6422 218° Southwest 456 525 36,000  Level Miami Center
09:29PM 24.3656 -82.7308 219° Southwest 461 531 36,000  Level Miami Center
09:30PM 24.2703 -82.8197 220° Southwest 461 531 36,000  Level Miami Center
09:31PM 24.1731 -82.9039 218° Southwest 461 531 36,000  Level Miami Center
09:32PM 24.0733 -82.9900 218° Southwest 461 531 36,000  Level Miami Center
09:34PM 23.9726 -83.0950 244° Southwest  Level FlightAware Approximate
09:41PM 23.6233 -83.8733 244° Southwest  Level FlightAware Approximate
09:42PM 23.5731 -83.9842 244° Southwest  Level FlightAware Approximate
09:43PM 23.5228 -84.0949 244° Southwest  Level FlightAware Approximate
09:44PM 23.4725 -84.2056 244° Southwest  Level FlightAware Approximate
09:45PM 23.4220 -84.3162 244° Southwest  Level FlightAware Approximate
09:46PM 23.3715 -84.4267 244° Southwest  Level FlightAware Approximate
09:47PM 23.3209 -84.5372 243° Southwest  Level FlightAware Approximate
09:48PM 23.2702 -84.6475 243° Southwest  Level FlightAware Approximate
09:49PM 23.2195 -84.7578 243° Southwest  Level FlightAware Approximate
09:50PM 23.1474 -84.8500 221° Southwest  Level FlightAware Approximate
09:51PM 23.0620 -84.9310 221° Southwest  Level FlightAware Approximate
09:52PM 22.9766 -85.0119 221° Southwest  Level FlightAware Approximate
09:53PM 22.8911 -85.0927 221° Southwest  Level FlightAware Approximate
09:54PM 22.8004 -85.1663 216° Southwest  Level FlightAware Approximate
09:55PM 22.7151 -85.2473 221° Southwest  Level FlightAware Approximate
09:56PM 22.6299 -85.3281 221° Southwest  Level FlightAware Approximate
09:57PM 22.5445 -85.4089 221° Southwest  Level FlightAware Approximate
09:58PM 22.4598 -85.4902 223° Southwest  Level FlightAware Approximate
09:59PM 22.3747 -85.5712 221° Southwest  Level FlightAware Approximate
10:00PM 22.2888 -85.6510 221° Southwest  Level FlightAware Approximate
10:01PM 22.2028 -85.7308 221° Southwest  Level FlightAware Approximate
10:02PM 22.1140 -85.8128 221° Southwest  Level FlightAware Approximate
10:03PM 22.0252 -85.8948 221° Southwest  Level FlightAware Approximate
10:04PM 21.9377 -85.9784 222° Southwest  Level FlightAware Approximate
10:05PM 21.8502 -86.0619 222° Southwest  Level FlightAware Approximate
10:06PM 21.7627 -86.1453 222° Southwest  Level FlightAware Approximate
10:07PM 21.6751 -86.2287 221° Southwest  Level FlightAware Approximate
10:08PM 21.5886 -86.3131 227° Southwest  Level FlightAware Approximate
10:09PM 21.5085 -86.4046 227° Southwest  Level FlightAware Approximate
10:10PM 21.4219 -86.4887 220° Southwest  Level FlightAware Approximate
10:11PM 21.3323 -86.5693 220° Southwest  Level FlightAware Approximate
10:12PM 21.2419 -86.6488 219° Southwest  Level FlightAware Approximate
10:13PM 21.1509 -86.7271 212° Southwest  Level FlightAware Approximate
10:14PM 21.0687 -86.8139 231° Southwest  Level FlightAware Approximate
10:15PM 21.0167 -86.8667 270° West  Level FlightAware Approximate
10:16PM 21.0365 -86.8771 270° West  Level Estimated
10:17PM 21.0365 -86.8771 270° West  Level Estimated
10:18PM 21.0365 -86.8771 270° West  Level Estimated
10:19PM 21.0365 -86.8771 270° West  Level Estimated
10:20PM 21.0365 -86.8771 270° West  Level Estimated
10:21PM 21.0365 -86.8771 270° West  Level Estimated